TimeAKDT,TemperatureF,Dew PointF,Humidity,Sea Level PressureIn,VisibilityMPH,Wind Direction,Wind SpeedMPH,Gust SpeedMPH,PrecipitationIn,Events,Conditions,WindDirDegrees,DateUTC
12:53 AM,30.9,16.0,54,29.58,10.0,North,20.7,42.6,N/A,,Mostly Cloudy,10,2011-11-02 08:53:00
1:53 AM,30.9,16.0,54,29.63,10.0,North,21.9,39.1,N/A,,Scattered Clouds,350,2011-11-02 09:53:00
2:53 AM,30.9,12.9,47,29.69,10.0,NNW,19.6,29.9,N/A,,Clear,330,2011-11-02 10:53:00
3:53 AM,30.9,10.9,43,29.73,10.0,North,21.9,28.8,N/A,,Clear,350,2011-11-02 11:53:00
4:53 AM,30.9,10.0,42,29.78,10.0,NNW,20.7,36.8,N/A,,Clear,340,2011-11-02 12:53:00
5:53 AM,30.9,10.9,43,29.82,10.0,NNW,19.6,25.3,N/A,,Clear,340,2011-11-02 13:53:00
6:53 AM,30.9,8.1,38,29.86,10.0,North,12.7,35.7,N/A,,Clear,10,2011-11-02 14:53:00
7:53 AM,30.9,5.0,33,29.88,10.0,NNW,24.2,39.1,N/A,,Clear,330,2011-11-02 15:53:00
8:53 AM,30.9,5.0,33,29.93,10.0,NW,21.9,33.4,N/A,,Overcast,320,2011-11-02 16:53:00
9:53 AM,28.9,5.0,36,29.97,10.0,NNW,13.8,31.1,N/A,,Clear,330,2011-11-02 17:53:00
10:53 AM,30.0,5.0,35,30.01,10.0,North,19.6,31.1,N/A,,Clear,350,2011-11-02 18:53:00
11:53 AM,30.9,7.0,37,30.03,10.0,North,18.4,31.1,N/A,,Clear,10,2011-11-02 19:53:00
12:53 PM,32.0,8.1,37,30.05,10.0,North,19.6,32.2,N/A,,Clear,10,2011-11-02 20:53:00
1:53 PM,33.1,7.0,34,30.07,10.0,North,21.9,29.9,N/A,,Clear,360,2011-11-02 21:53:00
2:53 PM,34.0,7.0,32,30.09,10.0,North,17.3,33.4,N/A,,Clear,350,2011-11-02 22:53:00
3:53 PM,33.1,6.1,32,30.09,10.0,NNW,12.7,33.4,N/A,,Clear,330,2011-11-02 23:53:00
4:53 PM,32.0,5.0,32,30.11,10.0,North,19.6,34.5,N/A,,Clear,350,2011-11-03 00:53:00
5:53 PM,32.0,7.0,35,30.13,10.0,North,17.3,26.5,N/A,,Clear,360,2011-11-03 01:53:00
6:53 PM,30.0,10.0,43,30.14,10.0,North,13.8,26.5,N/A,,Clear,360,2011-11-03 02:53:00
7:53 PM,32.0,5.0,32,30.14,10.0,North,15.0,23.0,N/A,,Clear,350,2011-11-03 03:53:00
8:53 PM,32.0,5.0,32,30.14,10.0,North,13.8,27.6,N/A,,Clear,10,2011-11-03 04:53:00
9:53 PM,30.9,8.1,38,30.14,10.0,NNE,15.0,28.8,N/A,,Clear,20,2011-11-03 05:53:00
10:53 PM,30.9,7.0,37,30.17,10.0,NNE,17.3,26.5,N/A,,Clear,30,2011-11-03 06:53:00
11:53 PM,30.9,6.1,35,30.16,10.0,North,26.5,36.8,N/A,,Clear,360,2011-11-03 07:53:00